createdAt,value
2018-12-30T00:03:41.531Z,81.56
2018-12-30T00:08:50.248Z,82.19
2018-12-30T00:14:02.834Z,82.18
2018-12-30T00:19:16.526Z,82.25
2018-12-30T00:24:28.230Z,82.37
2018-12-30T00:29:39.017Z,82.13
2018-12-30T00:34:54.542Z,82.11
2018-12-30T00:40:08.816Z,81.70
2018-12-30T00:45:17.221Z,81.56
2018-12-30T00:50:28.024Z,81.46
2018-12-30T00:55:38.244Z,81.73
2018-12-30T01:00:47.752Z,81.81
2018-12-30T01:06:00.761Z,81.69
2018-12-30T01:11:11.374Z,81.46
2018-12-30T01:16:19.885Z,81.52
2018-12-30T01:21:31.016Z,81.00
2018-12-30T01:26:38.919Z,81.95
2018-12-30T01:31:50.385Z,81.40
2018-12-30T01:37:02.194Z,81.08
2018-12-30T01:42:13.257Z,81.20
2018-12-30T01:47:23.690Z,81.34
2018-12-30T01:52:31.558Z,81.44
2018-12-30T01:57:45.929Z,81.31
2018-12-30T02:02:57.288Z,81.56
2018-12-30T02:08:10.833Z,81.82
2018-12-30T02:13:25.478Z,82.30
2018-12-30T02:18:34.409Z,82.30
2018-12-30T02:23:45.359Z,82.76
2018-12-30T02:28:57.131Z,82.48
2018-12-30T02:34:07.074Z,82.48
2018-12-30T02:39:22.498Z,82.76
2018-12-30T02:44:37.647Z,83.31
2018-12-30T02:49:48.459Z,83.56
2018-12-30T02:55:01.384Z,83.73
2018-12-30T03:00:11.300Z,83.93
2018-12-30T03:05:26.732Z,83.87
2018-12-30T03:10:35.815Z,84.44
2018-12-30T03:15:49.443Z,84.27
2018-12-30T03:21:03.114Z,84.67
2018-12-30T03:26:14.762Z,84.84
2018-12-30T03:31:27.256Z,84.98
2018-12-30T03:36:37.932Z,85.21
2018-12-30T03:41:47.893Z,85.37
2018-12-30T03:47:01.453Z,85.10
2018-12-30T03:52:12.392Z,85.22
2018-12-30T03:57:20.850Z,85.51
2018-12-30T04:02:31.719Z,85.58
2018-12-30T04:07:41.634Z,86.11
2018-12-30T04:12:49.123Z,86.22
2018-12-30T04:17:57.235Z,85.80
2018-12-30T04:23:04.958Z,85.70
2018-12-30T04:28:21.128Z,85.90
2018-12-30T04:33:31.503Z,86.05
2018-12-30T04:38:41.636Z,86.15
2018-12-30T04:43:54.290Z,86.34
2018-12-30T04:49:03.309Z,86.53
2018-12-30T04:54:15.519Z,86.60
2018-12-30T04:59:23.683Z,86.95
2018-12-30T05:04:31.776Z,86.74
2018-12-30T05:09:42.152Z,86.48
2018-12-30T05:14:54.756Z,86.01
2018-12-30T05:20:02.410Z,85.78
2018-12-30T05:25:09.481Z,85.61
2018-12-30T05:30:16.317Z,85.50
2018-12-30T05:35:27.976Z,85.27
2018-12-30T05:41:33.094Z,85.15
2018-12-30T05:46:43.199Z,84.83
2018-12-30T05:51:49.453Z,84.56
2018-12-30T05:56:57.606Z,84.53
2018-12-30T06:02:10.452Z,83.91
2018-12-30T06:07:23.141Z,83.80
2018-12-30T06:12:30.059Z,83.91
2018-12-30T06:17:42.771Z,83.78
2018-12-30T06:22:53.595Z,83.69
2018-12-30T06:28:02.036Z,83.65
2018-12-30T06:33:12.809Z,83.96
2018-12-30T06:38:24.579Z,83.99
2018-12-30T06:43:33.485Z,83.96
2018-12-30T06:48:46.123Z,84.14
2018-12-30T06:54:00.675Z,84.67
2018-12-30T06:59:10.708Z,84.65
2018-12-30T07:04:23.012Z,84.84
2018-12-30T07:09:32.365Z,84.96
2018-12-30T07:14:41.356Z,85.07
2018-12-30T07:19:51.149Z,85.09
2018-12-30T07:24:59.678Z,85.44
2018-12-30T07:30:11.782Z,86.28
2018-12-30T07:35:20.851Z,87.07
2018-12-30T07:40:30.665Z,87.00
2018-12-30T07:45:42.040Z,86.82
2018-12-30T07:50:50.140Z,86.90
2018-12-30T07:56:03.915Z,87.01
2018-12-30T08:01:16.524Z,87.88
2018-12-30T08:06:25.957Z,88.45
2018-12-30T08:11:41.461Z,88.40
2018-12-30T08:16:54.023Z,88.29
2018-12-30T08:22:02.329Z,89.00
2018-12-30T08:27:13.125Z,89.94
2018-12-30T08:32:23.976Z,90.05
2018-12-30T08:37:36.514Z,89.51
2018-12-30T08:42:42.852Z,89.33
2018-12-30T08:47:54.570Z,89.37
2018-12-30T08:53:04.676Z,89.65
2018-12-30T08:58:16.230Z,89.47
2018-12-30T09:03:24.003Z,89.49
2018-12-30T09:08:33.987Z,89.31
2018-12-30T09:13:44.968Z,89.63
2018-12-30T09:18:54.265Z,88.88
2018-12-30T09:24:09.637Z,87.96
2018-12-30T09:29:20.183Z,87.92
2018-12-30T09:34:29.250Z,88.19
2018-12-30T09:39:40.073Z,88.10
2018-12-30T09:44:51.762Z,87.30
2018-12-30T09:50:00.885Z,87.20
2018-12-30T09:55:14.647Z,86.11
2018-12-30T10:00:23.534Z,86.87
2018-12-30T10:05:32.070Z,88.11
2018-12-30T10:10:42.997Z,87.98
2018-12-30T10:15:56.720Z,87.94
2018-12-30T10:21:10.247Z,87.45
2018-12-30T10:26:22.063Z,86.64
2018-12-30T10:31:30.603Z,87.33
2018-12-30T10:36:42.788Z,86.18
2018-12-30T10:41:51.746Z,87.01
2018-12-30T10:47:04.575Z,85.39
2018-12-30T10:52:16.085Z,85.33
2018-12-30T10:57:27.041Z,85.53
2018-12-30T11:02:40.442Z,84.68
2018-12-30T11:07:54.735Z,85.78
2018-12-30T11:13:05.124Z,85.66
2018-12-30T11:18:18.036Z,86.37
2018-12-30T11:23:54.255Z,86.63
2018-12-30T11:29:06.870Z,86.30
2018-12-30T11:34:18.632Z,84.96
2018-12-30T11:39:26.920Z,85.24
2018-12-30T11:44:39.450Z,85.32
2018-12-30T11:49:50.169Z,84.19
2018-12-30T11:54:57.193Z,83.20
2018-12-30T12:00:09.876Z,82.12
2018-12-30T12:05:22.436Z,82.84
2018-12-30T12:10:31.745Z,83.04
2018-12-30T12:15:40.451Z,84.38
2018-12-30T12:20:55.752Z,84.96
2018-12-30T12:26:09.350Z,84.95
2018-12-30T12:31:22.853Z,84.11
2018-12-30T12:36:30.454Z,83.68
2018-12-30T12:41:41.230Z,83.75
2018-12-30T12:46:51.977Z,83.40
2018-12-30T12:52:02.120Z,84.07
2018-12-30T12:57:09.985Z,84.51
2018-12-30T13:02:19.839Z,84.87
2018-12-30T13:07:29.816Z,84.68
2018-12-30T13:12:40.642Z,84.90
2018-12-30T13:17:49.667Z,85.16
2018-12-30T13:22:58.970Z,85.19
2018-12-30T13:28:08.805Z,85.30
2018-12-30T13:33:21.583Z,87.42
2018-12-30T13:38:28.871Z,89.54
2018-12-30T13:43:38.692Z,90.32
2018-12-30T13:48:54.820Z,91.41
2018-12-30T13:54:05.155Z,92.50
2018-12-30T13:59:15.844Z,93.11
2018-12-30T14:04:25.697Z,93.76
2018-12-30T14:09:38.427Z,93.21
2018-12-30T14:14:47.464Z,93.00
2018-12-30T14:19:57.797Z,93.88
2018-12-30T14:25:06.953Z,93.77
2018-12-30T14:30:15.099Z,93.36
2018-12-30T14:35:25.066Z,93.27
2018-12-30T14:40:36.810Z,93.96
2018-12-30T14:45:46.535Z,94.08
2018-12-30T14:50:56.612Z,94.20
2018-12-30T14:56:03.733Z,94.18
2018-12-30T15:01:16.653Z,93.80
2018-12-30T15:06:26.758Z,93.93
2018-12-30T15:11:34.674Z,93.86
2018-12-30T15:16:46.542Z,94.80
2018-12-30T15:21:57.221Z,95.84
2018-12-30T15:27:12.652Z,95.66
2018-12-30T15:32:24.485Z,95.91
2018-12-30T15:37:37.977Z,95.98
2018-12-30T15:42:44.823Z,96.30
2018-12-30T15:47:57.451Z,96.66
2018-12-30T15:53:06.568Z,96.95
2018-12-30T15:58:19.080Z,96.90
2018-12-30T16:03:26.631Z,97.07
2018-12-30T16:08:39.270Z,97.54
2018-12-30T16:13:51.812Z,97.82
2018-12-30T16:19:02.855Z,98.06
2018-12-30T16:24:11.279Z,97.91
2018-12-30T16:29:23.116Z,98.01
2018-12-30T16:34:30.118Z,98.21
2018-12-30T16:39:39.908Z,97.80
2018-12-30T16:44:47.448Z,98.04
2018-12-30T16:49:58.447Z,98.07
2018-12-30T16:55:10.190Z,97.85
2018-12-30T17:00:21.903Z,97.76
2018-12-30T17:05:31.736Z,97.60
2018-12-30T17:10:45.520Z,97.83
2018-12-30T17:15:55.722Z,97.84
2018-12-30T17:21:08.428Z,98.04
2018-12-30T17:26:17.828Z,97.66
2018-12-30T17:31:27.835Z,97.56
2018-12-30T17:36:43.307Z,97.56
2018-12-30T17:41:53.158Z,97.44
2018-12-30T17:47:01.635Z,97.37
2018-12-30T17:52:10.811Z,97.71
2018-12-30T17:57:21.508Z,97.85
2018-12-30T18:02:33.353Z,98.49
2018-12-30T18:07:43.317Z,98.67
2018-12-30T18:12:54.235Z,98.90
2018-12-30T18:18:05.099Z,98.39
2018-12-30T18:23:15.433Z,98.07
2018-12-30T18:28:29.257Z,97.89
2018-12-30T18:33:40.481Z,97.93
2018-12-30T18:38:52.207Z,97.89
2018-12-30T18:44:01.959Z,98.42
2018-12-30T18:49:15.524Z,98.25
2018-12-30T18:54:40.399Z,97.96
2018-12-30T18:59:49.571Z,98.13
2018-12-30T19:04:57.864Z,97.96
2018-12-30T19:10:05.204Z,98.28
2018-12-30T19:15:18.056Z,97.89
2018-12-30T19:20:30.215Z,97.83
2018-12-30T19:25:40.911Z,98.16
2018-12-30T19:30:52.548Z,98.24
2018-12-30T19:35:59.860Z,98.12
2018-12-30T19:41:08.134Z,98.01
2018-12-30T19:46:19.336Z,97.63
2018-12-30T19:51:28.675Z,97.72
2018-12-30T19:56:42.413Z,97.83
2018-12-30T20:01:55.021Z,97.62
2018-12-30T20:07:08.844Z,98.17
2018-12-30T20:12:20.349Z,98.29
2018-12-30T20:17:32.013Z,98.12
2018-12-30T20:22:45.518Z,97.54
2018-12-30T20:27:58.281Z,97.53
2018-12-30T20:33:09.039Z,97.42
2018-12-30T20:38:20.082Z,97.19
2018-12-30T20:43:33.678Z,97.09
2018-12-30T20:48:44.665Z,96.98
2018-12-30T20:53:53.591Z,97.23
2018-12-30T20:59:03.847Z,96.97
2018-12-30T21:04:18.916Z,96.88
2018-12-30T21:09:29.263Z,97.34
2018-12-30T21:14:40.204Z,97.36
2018-12-30T21:19:50.546Z,97.21
2018-12-30T21:25:03.153Z,97.24
2018-12-30T21:30:36.581Z,97.19
2018-12-30T21:35:48.416Z,97.21
2018-12-30T21:40:56.701Z,96.97
2018-12-30T21:46:09.213Z,97.07
2018-12-30T21:51:20.101Z,97.39
2018-12-30T21:56:29.529Z,97.49
2018-12-30T22:01:38.646Z,97.33
2018-12-30T22:06:48.012Z,97.82
2018-12-30T22:12:00.999Z,97.60
2018-12-30T22:17:12.741Z,97.02
2018-12-30T22:22:21.797Z,96.88
2018-12-30T22:27:31.212Z,96.82
2018-12-30T22:32:45.551Z,97.33
2018-12-30T22:37:55.526Z,97.30
2018-12-30T22:43:08.163Z,97.37
2018-12-30T22:48:17.326Z,96.92
2018-12-30T22:53:25.033Z,96.91
2018-12-30T22:58:36.350Z,96.73
2018-12-30T23:03:48.520Z,96.65
2018-12-30T23:08:58.340Z,96.53
2018-12-30T23:14:08.327Z,96.95
2018-12-30T23:19:19.898Z,96.68
2018-12-30T23:24:31.646Z,96.42
2018-12-30T23:29:45.350Z,96.26
2018-12-30T23:34:55.339Z,95.90
2018-12-30T23:40:03.773Z,96.52
2018-12-30T23:45:14.643Z,96.73
2018-12-30T23:50:21.950Z,96.51
2018-12-30T23:55:30.067Z,96.56
